sensor_id;sensor_type;location;lat;lon;timestamp;P1;durP1;ratioP1;P2;durP2;ratioP2
30048;SDS011;16879;50.852;15.602;2022-11-20T00:02:19;275.90;;;107.57;;
30048;SDS011;16879;50.852;15.602;2022-11-20T00:04:45;282.25;;;107.70;;
30048;SDS011;16879;50.852;15.602;2022-11-20T00:07:11;275.80;;;101.00;;
30048;SDS011;16879;50.852;15.602;2022-11-20T00:09:37;274.50;;;107.97;;
30048;SDS011;16879;50.852;15.602;2022-11-20T00:12:03;274.60;;;104.63;;
30048;SDS011;16879;50.852;15.602;2022-11-20T00:14:29;268.10;;;109.63;;
30048;SDS011;16879;50.852;15.602;2022-11-20T00:16:56;247.75;;;96.88;;
30048;SDS011;16879;50.852;15.602;2022-11-20T00:19:22;261.25;;;103.75;;
30048;SDS011;16879;50.852;15.602;2022-11-20T00:21:47;266.75;;;105.15;;
30048;SDS011;16879;50.852;15.602;2022-11-20T00:24:16;297.52;;;116.10;;
30048;SDS011;16879;50.852;15.602;2022-11-20T00:26:42;289.02;;;113.00;;
30048;SDS011;16879;50.852;15.602;2022-11-20T00:29:09;270.83;;;108.82;;
30048;SDS011;16879;50.852;15.602;2022-11-20T00:31:35;288.90;;;112.18;;
30048;SDS011;16879;50.852;15.602;2022-11-20T00:34:01;260.33;;;103.75;;
30048;SDS011;16879;50.852;15.602;2022-11-20T00:36:27;246.90;;;97.60;;
30048;SDS011;16879;50.852;15.602;2022-11-20T00:38:57;247.50;;;97.93;;
30048;SDS011;16879;50.852;15.602;2022-11-20T00:41:23;219.43;;;87.55;;
30048;SDS011;16879;50.852;15.602;2022-11-20T00:43:53;207.98;;;80.72;;
30048;SDS011;16879;50.852;15.602;2022-11-20T00:46:21;219.98;;;88.88;;
30048;SDS011;16879;50.852;15.602;2022-11-20T00:48:48;211.27;;;86.13;;
30048;SDS011;16879;50.852;15.602;2022-11-20T00:51:16;192.98;;;79.53;;
30048;SDS011;16879;50.852;15.602;2022-11-20T00:53:43;206.80;;;80.50;;
30048;SDS011;16879;50.852;15.602;2022-11-20T00:56:09;209.02;;;82.15;;
30048;SDS011;16879;50.852;15.602;2022-11-20T00:58:37;202.32;;;76.10;;
30048;SDS011;16879;50.852;15.602;2022-11-20T01:01:11;206.15;;;80.45;;
30048;SDS011;16879;50.852;15.602;2022-11-20T01:03:42;201.27;;;77.43;;
30048;SDS011;16879;50.852;15.602;2022-11-20T01:06:20;198.13;;;78.75;;
30048;SDS011;16879;50.852;15.602;2022-11-20T01:08:48;196.43;;;74.97;;
30048;SDS011;16879;50.852;15.602;2022-11-20T01:11:16;215.80;;;83.70;;
30048;SDS011;16879;50.852;15.602;2022-11-20T01:13:42;223.40;;;89.70;;
30048;SDS011;16879;50.852;15.602;2022-11-20T01:16:11;189.52;;;72.65;;
30048;SDS011;16879;50.852;15.602;2022-11-20T01:18:40;180.75;;;74.97;;
30048;SDS011;16879;50.852;15.602;2022-11-20T01:21:13;170.43;;;69.55;;
30048;SDS011;16879;50.852;15.602;2022-11-20T01:23:41;188.27;;;69.78;;
30048;SDS011;16879;50.852;15.602;2022-11-20T01:26:09;197.50;;;81.07;;
30048;SDS011;16879;50.852;15.602;2022-11-20T01:28:36;200.38;;;77.50;;
30048;SDS011;16879;50.852;15.602;2022-11-20T01:31:13;178.32;;;70.20;;
30048;SDS011;16879;50.852;15.602;2022-11-20T01:33:46;165.30;;;65.78;;
30048;SDS011;16879;50.852;15.602;2022-11-20T01:36:15;164.63;;;65.32;;
30048;SDS011;16879;50.852;15.602;2022-11-20T01:38:42;169.15;;;67.70;;
30048;SDS011;16879;50.852;15.602;2022-11-20T01:41:08;172.98;;;72.78;;
30048;SDS011;16879;50.852;15.602;2022-11-20T01:43:35;172.18;;;72.88;;
30048;SDS011;16879;50.852;15.602;2022-11-20T01:46:02;170.38;;;70.35;;
30048;SDS011;16879;50.852;15.602;2022-11-20T01:48:57;145.38;;;58.80;;
30048;SDS011;16879;50.852;15.602;2022-11-20T01:53:51;149.43;;;62.38;;
30048;SDS011;16879;50.852;15.602;2022-11-20T01:56:18;125.90;;;55.28;;
30048;SDS011;16879;50.852;15.602;2022-11-20T01:58:48;137.38;;;57.47;;
30048;SDS011;16879;50.852;15.602;2022-11-20T02:01:14;132.80;;;57.85;;
30048;SDS011;16879;50.852;15.602;2022-11-20T02:03:41;143.63;;;64.20;;
30048;SDS011;16879;50.852;15.602;2022-11-20T02:08:54;135.85;;;57.50;;
30048;SDS011;16879;50.852;15.602;2022-11-20T02:11:21;130.00;;;55.22;;
30048;SDS011;16879;50.852;15.602;2022-11-20T02:13:47;128.25;;;50.70;;
30048;SDS011;16879;50.852;15.602;2022-11-20T02:18:50;143.45;;;58.70;;
30048;SDS011;16879;50.852;15.602;2022-11-20T02:24:02;221.00;;;80.15;;
30048;SDS011;16879;50.852;15.602;2022-11-20T02:26:30;218.18;;;77.90;;
30048;SDS011;16879;50.852;15.602;2022-11-20T02:28:56;203.82;;;72.03;;
30048;SDS011;16879;50.852;15.602;2022-11-20T02:31:25;202.13;;;77.60;;
30048;SDS011;16879;50.852;15.602;2022-11-20T02:33:55;208.93;;;76.40;;
30048;SDS011;16879;50.852;15.602;2022-11-20T02:36:21;144.27;;;60.17;;
30048;SDS011;16879;50.852;15.602;2022-11-20T02:38:48;146.30;;;60.63;;
30048;SDS011;16879;50.852;15.602;2022-11-20T02:41:15;192.60;;;71.40;;
30048;SDS011;16879;50.852;15.602;2022-11-20T02:43:41;160.38;;;57.58;;
30048;SDS011;16879;50.852;15.602;2022-11-20T02:46:07;146.30;;;56.72;;
30048;SDS011;16879;50.852;15.602;2022-11-20T02:48:33;145.93;;;56.10;;
30048;SDS011;16879;50.852;15.602;2022-11-20T02:51:01;147.48;;;57.33;;
30048;SDS011;16879;50.852;15.602;2022-11-20T02:53:27;158.18;;;62.28;;
30048;SDS011;16879;50.852;15.602;2022-11-20T02:55:53;152.00;;;57.85;;
30048;SDS011;16879;50.852;15.602;2022-11-20T02:58:18;155.90;;;59.55;;
30048;SDS011;16879;50.852;15.602;2022-11-20T03:00:45;131.82;;;53.08;;
30048;SDS011;16879;50.852;15.602;2022-11-20T03:03:11;142.30;;;55.00;;
30048;SDS011;16879;50.852;15.602;2022-11-20T03:05:36;130.32;;;51.20;;
30048;SDS011;16879;50.852;15.602;2022-11-20T03:08:02;138.73;;;54.67;;
30048;SDS011;16879;50.852;15.602;2022-11-20T03:10:29;131.63;;;50.08;;
30048;SDS011;16879;50.852;15.602;2022-11-20T03:12:55;118.65;;;48.53;;
30048;SDS011;16879;50.852;15.602;2022-11-20T03:15:22;128.82;;;53.72;;
30048;SDS011;16879;50.852;15.602;2022-11-20T03:17:54;200.13;;;73.53;;
30048;SDS011;16879;50.852;15.602;2022-11-20T03:20:20;154.15;;;58.20;;
30048;SDS011;16879;50.852;15.602;2022-11-20T03:22:46;154.25;;;58.58;;
30048;SDS011;16879;50.852;15.602;2022-11-20T03:25:13;134.95;;;54.78;;
30048;SDS011;16879;50.852;15.602;2022-11-20T03:27:39;157.40;;;60.45;;
30048;SDS011;16879;50.852;15.602;2022-11-20T03:30:05;160.40;;;60.90;;
30048;SDS011;16879;50.852;15.602;2022-11-20T03:32:31;174.55;;;65.45;;
30048;SDS011;16879;50.852;15.602;2022-11-20T03:34:57;228.30;;;80.38;;
30048;SDS011;16879;50.852;15.602;2022-11-20T03:37:23;185.90;;;68.88;;
30048;SDS011;16879;50.852;15.602;2022-11-20T03:39:49;187.27;;;71.35;;
30048;SDS011;16879;50.852;15.602;2022-11-20T03:42:15;181.70;;;69.82;;
30048;SDS011;16879;50.852;15.602;2022-11-20T03:44:59;177.32;;;64.43;;
30048;SDS011;16879;50.852;15.602;2022-11-20T03:47:25;169.70;;;62.28;;
30048;SDS011;16879;50.852;15.602;2022-11-20T03:49:51;154.57;;;59.65;;
30048;SDS011;16879;50.852;15.602;2022-11-20T03:52:17;162.38;;;59.03;;
30048;SDS011;16879;50.852;15.602;2022-11-20T03:54:43;146.23;;;57.58;;
30048;SDS011;16879;50.852;15.602;2022-11-20T03:57:08;233.10;;;83.00;;
30048;SDS011;16879;50.852;15.602;2022-11-20T03:59:35;249.48;;;87.18;;
30048;SDS011;16879;50.852;15.602;2022-11-20T04:02:01;226.77;;;91.10;;
30048;SDS011;16879;50.852;15.602;2022-11-20T04:04:27;205.23;;;73.75;;
30048;SDS011;16879;50.852;15.602;2022-11-20T04:06:53;187.38;;;73.63;;
30048;SDS011;16879;50.852;15.602;2022-11-20T04:09:19;169.63;;;66.00;;
30048;SDS011;16879;50.852;15.602;2022-11-20T04:11:44;177.30;;;70.57;;
30048;SDS011;16879;50.852;15.602;2022-11-20T04:14:13;153.13;;;61.30;;
30048;SDS011;16879;50.852;15.602;2022-11-20T04:16:39;144.93;;;59.78;;
30048;SDS011;16879;50.852;15.602;2022-11-20T04:19:06;148.77;;;56.67;;
30048;SDS011;16879;50.852;15.602;2022-11-20T04:21:32;166.93;;;58.95;;
30048;SDS011;16879;50.852;15.602;2022-11-20T04:23:58;149.27;;;55.63;;
30048;SDS011;16879;50.852;15.602;2022-11-20T04:26:25;152.02;;;60.58;;
30048;SDS011;16879;50.852;15.602;2022-11-20T04:28:52;154.82;;;59.90;;
30048;SDS011;16879;50.852;15.602;2022-11-20T04:31:22;142.30;;;59.15;;
30048;SDS011;16879;50.852;15.602;2022-11-20T04:33:48;120.18;;;49.38;;
30048;SDS011;16879;50.852;15.602;2022-11-20T04:36:16;135.32;;;52.72;;
30048;SDS011;16879;50.852;15.602;2022-11-20T04:38:43;135.88;;;55.13;;
30048;SDS011;16879;50.852;15.602;2022-11-20T04:41:12;123.93;;;48.13;;
30048;SDS011;16879;50.852;15.602;2022-11-20T04:43:45;114.88;;;45.72;;
30048;SDS011;16879;50.852;15.602;2022-11-20T04:46:17;132.52;;;52.33;;
30048;SDS011;16879;50.852;15.602;2022-11-20T04:48:44;133.88;;;52.95;;
30048;SDS011;16879;50.852;15.602;2022-11-20T04:51:11;135.13;;;57.03;;
30048;SDS011;16879;50.852;15.602;2022-11-20T04:53:37;140.23;;;52.38;;
30048;SDS011;16879;50.852;15.602;2022-11-20T04:56:07;129.55;;;53.92;;
30048;SDS011;16879;50.852;15.602;2022-11-20T04:58:34;121.00;;;49.63;;
30048;SDS011;16879;50.852;15.602;2022-11-20T05:01:04;132.98;;;53.20;;
30048;SDS011;16879;50.852;15.602;2022-11-20T05:03:40;130.13;;;47.72;;
30048;SDS011;16879;50.852;15.602;2022-11-20T05:06:08;126.63;;;50.63;;
30048;SDS011;16879;50.852;15.602;2022-11-20T05:08:39;128.82;;;52.38;;
30048;SDS011;16879;50.852;15.602;2022-11-20T05:11:07;122.78;;;47.78;;
30048;SDS011;16879;50.852;15.602;2022-11-20T05:13:34;121.45;;;49.00;;
30048;SDS011;16879;50.852;15.602;2022-11-20T05:16:01;114.95;;;48.25;;
30048;SDS011;16879;50.852;15.602;2022-11-20T05:18:28;135.40;;;49.55;;
30048;SDS011;16879;50.852;15.602;2022-11-20T05:20:55;141.35;;;59.78;;
30048;SDS011;16879;50.852;15.602;2022-11-20T05:23:22;153.52;;;57.67;;
30048;SDS011;16879;50.852;15.602;2022-11-20T05:25:51;108.95;;;44.60;;
30048;SDS011;16879;50.852;15.602;2022-11-20T05:28:17;127.57;;;53.20;;
30048;SDS011;16879;50.852;15.602;2022-11-20T05:30:45;106.70;;;47.00;;
30048;SDS011;16879;50.852;15.602;2022-11-20T05:33:12;145.27;;;57.75;;
30048;SDS011;16879;50.852;15.602;2022-11-20T05:35:38;138.77;;;54.03;;
30048;SDS011;16879;50.852;15.602;2022-11-20T05:38:05;143.40;;;53.72;;
30048;SDS011;16879;50.852;15.602;2022-11-20T05:40:30;112.65;;;44.03;;
30048;SDS011;16879;50.852;15.602;2022-11-20T05:42:57;140.93;;;55.45;;
30048;SDS011;16879;50.852;15.602;2022-11-20T05:45:25;115.47;;;51.40;;
30048;SDS011;16879;50.852;15.602;2022-11-20T05:47:51;123.55;;;49.03;;
30048;SDS011;16879;50.852;15.602;2022-11-20T05:50:17;121.88;;;49.55;;
30048;SDS011;16879;50.852;15.602;2022-11-20T05:52:43;141.07;;;56.35;;
30048;SDS011;16879;50.852;15.602;2022-11-20T05:55:09;118.88;;;50.90;;
30048;SDS011;16879;50.852;15.602;2022-11-20T05:57:36;117.25;;;48.13;;
30048;SDS011;16879;50.852;15.602;2022-11-20T06:00:03;110.25;;;46.70;;
30048;SDS011;16879;50.852;15.602;2022-11-20T06:02:30;124.18;;;48.22;;
30048;SDS011;16879;50.852;15.602;2022-11-20T06:04:56;114.10;;;48.58;;
30048;SDS011;16879;50.852;15.602;2022-11-20T06:07:22;129.23;;;54.47;;
30048;SDS011;16879;50.852;15.602;2022-11-20T06:09:48;120.97;;;51.30;;
30048;SDS011;16879;50.852;15.602;2022-11-20T06:12:14;110.43;;;48.08;;
30048;SDS011;16879;50.852;15.602;2022-11-20T06:18:10;95.93;;;42.65;;
30048;SDS011;16879;50.852;15.602;2022-11-20T06:20:58;84.43;;;37.20;;
30048;SDS011;16879;50.852;15.602;2022-11-20T06:23:30;104.90;;;43.90;;
30048;SDS011;16879;50.852;15.602;2022-11-20T06:25:58;110.68;;;46.80;;
30048;SDS011;16879;50.852;15.602;2022-11-20T06:34:44;88.60;;;41.10;;
30048;SDS011;16879;50.852;15.602;2022-11-20T06:37:10;70.40;;;33.40;;
30048;SDS011;16879;50.852;15.602;2022-11-20T06:39:36;82.35;;;35.75;;
30048;SDS011;16879;50.852;15.602;2022-11-20T06:42:04;80.43;;;35.92;;
30048;SDS011;16879;50.852;15.602;2022-11-20T06:44:31;80.60;;;34.58;;
30048;SDS011;16879;50.852;15.602;2022-11-20T06:47:00;81.18;;;35.42;;
30048;SDS011;16879;50.852;15.602;2022-11-20T06:49:27;87.22;;;37.25;;
30048;SDS011;16879;50.852;15.602;2022-11-20T06:51:54;97.65;;;46.88;;
30048;SDS011;16879;50.852;15.602;2022-11-20T06:54:21;140.07;;;59.00;;
30048;SDS011;16879;50.852;15.602;2022-11-20T06:56:48;115.22;;;47.75;;
30048;SDS011;16879;50.852;15.602;2022-11-20T06:59:14;144.18;;;63.08;;
30048;SDS011;16879;50.852;15.602;2022-11-20T07:01:41;123.75;;;51.20;;
30048;SDS011;16879;50.852;15.602;2022-11-20T07:04:07;125.65;;;54.80;;
30048;SDS011;16879;50.852;15.602;2022-11-20T07:06:34;116.13;;;50.65;;
30048;SDS011;16879;50.852;15.602;2022-11-20T07:09:02;111.25;;;46.88;;
30048;SDS011;16879;50.852;15.602;2022-11-20T07:11:30;107.13;;;47.53;;
30048;SDS011;16879;50.852;15.602;2022-11-20T07:13:58;106.55;;;46.55;;
30048;SDS011;16879;50.852;15.602;2022-11-20T07:16:25;97.53;;;42.03;;
30048;SDS011;16879;50.852;15.602;2022-11-20T07:18:51;104.47;;;43.53;;
30048;SDS011;16879;50.852;15.602;2022-11-20T07:21:17;113.10;;;43.60;;
30048;SDS011;16879;50.852;15.602;2022-11-20T07:23:44;92.47;;;38.97;;
30048;SDS011;16879;50.852;15.602;2022-11-20T07:26:10;103.28;;;47.22;;
30048;SDS011;16879;50.852;15.602;2022-11-20T07:28:36;106.15;;;46.97;;
30048;SDS011;16879;50.852;15.602;2022-11-20T07:31:03;114.93;;;51.38;;
30048;SDS011;16879;50.852;15.602;2022-11-20T07:33:32;115.88;;;49.00;;
30048;SDS011;16879;50.852;15.602;2022-11-20T07:36:00;117.20;;;49.33;;
30048;SDS011;16879;50.852;15.602;2022-11-20T07:38:28;119.32;;;52.38;;
30048;SDS011;16879;50.852;15.602;2022-11-20T07:40:55;124.72;;;54.90;;
30048;SDS011;16879;50.852;15.602;2022-11-20T07:43:23;133.27;;;55.65;;
30048;SDS011;16879;50.852;15.602;2022-11-20T07:45:50;145.48;;;62.95;;
30048;SDS011;16879;50.852;15.602;2022-11-20T07:48:17;156.73;;;64.38;;
30048;SDS011;16879;50.852;15.602;2022-11-20T07:50:47;181.23;;;72.40;;
30048;SDS011;16879;50.852;15.602;2022-11-20T07:53:13;169.73;;;73.70;;
30048;SDS011;16879;50.852;15.602;2022-11-20T07:55:46;153.55;;;67.55;;
30048;SDS011;16879;50.852;15.602;2022-11-20T07:58:12;173.93;;;72.95;;
30048;SDS011;16879;50.852;15.602;2022-11-20T08:00:39;174.02;;;78.55;;
30048;SDS011;16879;50.852;15.602;2022-11-20T08:03:06;153.40;;;73.45;;
30048;SDS011;16879;50.852;15.602;2022-11-20T08:05:33;160.23;;;73.28;;
30048;SDS011;16879;50.852;15.602;2022-11-20T08:07:59;181.02;;;81.25;;
30048;SDS011;16879;50.852;15.602;2022-11-20T08:10:26;162.38;;;64.32;;
30048;SDS011;16879;50.852;15.602;2022-11-20T08:12:52;145.02;;;66.80;;
30048;SDS011;16879;50.852;15.602;2022-11-20T08:15:47;170.65;;;79.82;;
30048;SDS011;16879;50.852;15.602;2022-11-20T08:18:17;184.30;;;80.90;;
30048;SDS011;16879;50.852;15.602;2022-11-20T08:20:44;151.98;;;62.67;;
30048;SDS011;16879;50.852;15.602;2022-11-20T08:25:49;157.48;;;67.85;;
30048;SDS011;16879;50.852;15.602;2022-11-20T08:28:16;180.90;;;73.78;;
30048;SDS011;16879;50.852;15.602;2022-11-20T08:30:44;171.20;;;72.50;;
30048;SDS011;16879;50.852;15.602;2022-11-20T08:33:10;176.27;;;78.00;;
30048;SDS011;16879;50.852;15.602;2022-11-20T08:35:37;187.63;;;88.57;;
30048;SDS011;16879;50.852;15.602;2022-11-20T08:38:06;165.32;;;74.70;;
30048;SDS011;16879;50.852;15.602;2022-11-20T08:40:32;140.32;;;65.38;;
30048;SDS011;16879;50.852;15.602;2022-11-20T08:43:00;163.10;;;65.97;;
30048;SDS011;16879;50.852;15.602;2022-11-20T08:45:27;192.95;;;83.30;;
30048;SDS011;16879;50.852;15.602;2022-11-20T08:47:53;198.05;;;87.43;;
30048;SDS011;16879;50.852;15.602;2022-11-20T08:50:20;233.05;;;91.82;;
30048;SDS011;16879;50.852;15.602;2022-11-20T08:52:46;190.68;;;81.43;;
30048;SDS011;16879;50.852;15.602;2022-11-20T08:55:12;193.55;;;78.40;;
30048;SDS011;16879;50.852;15.602;2022-11-20T08:57:39;187.75;;;77.45;;
30048;SDS011;16879;50.852;15.602;2022-11-20T09:00:06;173.30;;;75.05;;
30048;SDS011;16879;50.852;15.602;2022-11-20T09:02:33;170.57;;;74.43;;
30048;SDS011;16879;50.852;15.602;2022-11-20T09:05:01;155.27;;;69.45;;
30048;SDS011;16879;50.852;15.602;2022-11-20T09:07:28;187.57;;;81.20;;
30048;SDS011;16879;50.852;15.602;2022-11-20T09:10:00;223.15;;;97.55;;
30048;SDS011;16879;50.852;15.602;2022-11-20T09:12:27;205.25;;;87.43;;
30048;SDS011;16879;50.852;15.602;2022-11-20T09:14:53;199.45;;;88.72;;
30048;SDS011;16879;50.852;15.602;2022-11-20T09:17:19;192.65;;;82.60;;
30048;SDS011;16879;50.852;15.602;2022-11-20T09:19:46;175.32;;;74.05;;
30048;SDS011;16879;50.852;15.602;2022-11-20T09:22:12;172.00;;;73.53;;
30048;SDS011;16879;50.852;15.602;2022-11-20T09:24:39;203.73;;;87.43;;
30048;SDS011;16879;50.852;15.602;2022-11-20T09:27:10;213.75;;;90.18;;
30048;SDS011;16879;50.852;15.602;2022-11-20T09:29:37;193.13;;;85.80;;
30048;SDS011;16879;50.852;15.602;2022-11-20T09:32:04;152.60;;;69.43;;
30048;SDS011;16879;50.852;15.602;2022-11-20T09:34:31;185.23;;;81.03;;
30048;SDS011;16879;50.852;15.602;2022-11-20T09:36:58;145.80;;;67.32;;
30048;SDS011;16879;50.852;15.602;2022-11-20T09:39:26;139.85;;;63.03;;
30048;SDS011;16879;50.852;15.602;2022-11-20T09:41:59;104.28;;;54.13;;
30048;SDS011;16879;50.852;15.602;2022-11-20T09:44:32;86.00;;;44.42;;
30048;SDS011;16879;50.852;15.602;2022-11-20T09:47:03;112.70;;;50.83;;
30048;SDS011;16879;50.852;15.602;2022-11-20T09:49:52;102.90;;;45.70;;
30048;SDS011;16879;50.852;15.602;2022-11-20T09:53:08;116.88;;;54.33;;
30048;SDS011;16879;50.852;15.602;2022-11-20T09:55:37;119.97;;;56.50;;
30048;SDS011;16879;50.852;15.602;2022-11-20T09:58:10;117.30;;;55.00;;
30048;SDS011;16879;50.852;15.602;2022-11-20T10:00:50;115.13;;;57.55;;
30048;SDS011;16879;50.852;15.602;2022-11-20T10:03:29;98.28;;;50.72;;
30048;SDS011;16879;50.852;15.602;2022-11-20T10:06:02;95.80;;;44.92;;
30048;SDS011;16879;50.852;15.602;2022-11-20T10:08:45;92.25;;;46.90;;
30048;SDS011;16879;50.852;15.602;2022-11-20T10:11:31;83.68;;;42.60;;
30048;SDS011;16879;50.852;15.602;2022-11-20T10:16:46;82.63;;;41.47;;
30048;SDS011;16879;50.852;15.602;2022-11-20T10:21:55;70.82;;;37.63;;
30048;SDS011;16879;50.852;15.602;2022-11-20T10:24:39;83.65;;;35.15;;
30048;SDS011;16879;50.852;15.602;2022-11-20T10:30:00;77.43;;;37.25;;
30048;SDS011;16879;50.852;15.602;2022-11-20T10:32:36;74.07;;;36.03;;
30048;SDS011;16879;50.852;15.602;2022-11-20T10:35:10;73.00;;;37.42;;
30048;SDS011;16879;50.852;15.602;2022-11-20T10:37:44;66.63;;;32.05;;
30048;SDS011;16879;50.852;15.602;2022-11-20T10:46:08;59.35;;;27.75;;
30048;SDS011;16879;50.852;15.602;2022-11-20T10:48:43;78.63;;;34.92;;
30048;SDS011;16879;50.852;15.602;2022-11-20T10:56:22;85.65;;;43.67;;
30048;SDS011;16879;50.852;15.602;2022-11-20T11:01:39;84.72;;;40.53;;
30048;SDS011;16879;50.852;15.602;2022-11-20T11:04:13;89.10;;;43.85;;
30048;SDS011;16879;50.852;15.602;2022-11-20T11:07:38;83.97;;;40.28;;
30048;SDS011;16879;50.852;15.602;2022-11-20T11:09:50;80.90;;;36.92;;
30048;SDS011;16879;50.852;15.602;2022-11-20T11:12:21;74.55;;;32.83;;
30048;SDS011;16879;50.852;15.602;2022-11-20T11:14:50;67.68;;;33.80;;
30048;SDS011;16879;50.852;15.602;2022-11-20T11:17:26;57.70;;;28.88;;
30048;SDS011;16879;50.852;15.602;2022-11-20T11:19:58;65.82;;;34.13;;
30048;SDS011;16879;50.852;15.602;2022-11-20T11:22:24;71.63;;;36.72;;
30048;SDS011;16879;50.852;15.602;2022-11-20T11:24:54;71.25;;;33.90;;
30048;SDS011;16879;50.852;15.602;2022-11-20T11:27:21;66.32;;;33.55;;
30048;SDS011;16879;50.852;15.602;2022-11-20T11:29:47;64.43;;;32.30;;
30048;SDS011;16879;50.852;15.602;2022-11-20T11:32:15;66.55;;;34.72;;
30048;SDS011;16879;50.852;15.602;2022-11-20T11:34:41;89.78;;;46.80;;
30048;SDS011;16879;50.852;15.602;2022-11-20T11:37:13;135.65;;;55.75;;
30048;SDS011;16879;50.852;15.602;2022-11-20T11:39:44;63.47;;;30.27;;
30048;SDS011;16879;50.852;15.602;2022-11-20T11:42:13;60.83;;;29.42;;
30048;SDS011;16879;50.852;15.602;2022-11-20T11:44:45;72.38;;;35.90;;
30048;SDS011;16879;50.852;15.602;2022-11-20T11:52:48;53.65;;;25.00;;
30048;SDS011;16879;50.852;15.602;2022-11-20T11:55:40;72.10;;;35.38;;
30048;SDS011;16879;50.852;15.602;2022-11-20T12:04:00;50.90;;;25.25;;
30048;SDS011;16879;50.852;15.602;2022-11-20T12:06:32;66.00;;;32.75;;
30048;SDS011;16879;50.852;15.602;2022-11-20T12:09:02;46.53;;;26.38;;
30048;SDS011;16879;50.852;15.602;2022-11-20T12:14:43;48.67;;;27.95;;
30048;SDS011;16879;50.852;15.602;2022-11-20T12:17:16;56.25;;;30.88;;
30048;SDS011;16879;50.852;15.602;2022-11-20T12:19:43;38.65;;;22.85;;
30048;SDS011;16879;50.852;15.602;2022-11-20T12:34:37;23.33;;;10.90;;
30048;SDS011;16879;50.852;15.602;2022-11-20T12:39:53;26.60;;;13.55;;
30048;SDS011;16879;50.852;15.602;2022-11-20T12:51:47;20.10;;;9.32;;
30048;SDS011;16879;50.852;15.602;2022-11-20T12:57:51;14.88;;;7.93;;
30048;SDS011;16879;50.852;15.602;2022-11-20T13:01:12;17.05;;;9.68;;
30048;SDS011;16879;50.852;15.602;2022-11-20T13:06:49;13.63;;;7.72;;
30048;SDS011;16879;50.852;15.602;2022-11-20T13:09:54;14.10;;;7.97;;
30048;SDS011;16879;50.852;15.602;2022-11-20T13:12:57;14.40;;;8.30;;
30048;SDS011;16879;50.852;15.602;2022-11-20T13:18:29;13.85;;;7.38;;
30048;SDS011;16879;50.852;15.602;2022-11-20T13:24:18;13.20;;;7.38;;
30048;SDS011;16879;50.852;15.602;2022-11-20T13:37:32;12.88;;;7.80;;
30048;SDS011;16879;50.852;15.602;2022-11-20T13:46:02;21.42;;;11.27;;
30048;SDS011;16879;50.852;15.602;2022-11-20T13:48:39;38.00;;;23.08;;
30048;SDS011;16879;50.852;15.602;2022-11-20T13:51:48;21.30;;;10.70;;
30048;SDS011;16879;50.852;15.602;2022-11-20T14:01:31;24.20;;;14.07;;
30048;SDS011;16879;50.852;15.602;2022-11-20T14:04:00;16.42;;;9.80;;
30048;SDS011;16879;50.852;15.602;2022-11-20T14:06:42;18.05;;;10.02;;
30048;SDS011;16879;50.852;15.602;2022-11-20T14:09:13;18.38;;;9.55;;
30048;SDS011;16879;50.852;15.602;2022-11-20T14:11:53;17.08;;;8.85;;
30048;SDS011;16879;50.852;15.602;2022-11-20T14:14:25;20.13;;;10.15;;
30048;SDS011;16879;50.852;15.602;2022-11-20T14:17:07;15.38;;;9.15;;
30048;SDS011;16879;50.852;15.602;2022-11-20T14:19:48;17.48;;;9.35;;
30048;SDS011;16879;50.852;15.602;2022-11-20T14:22:26;13.95;;;8.50;;
30048;SDS011;16879;50.852;15.602;2022-11-20T14:27:41;37.90;;;17.88;;
30048;SDS011;16879;50.852;15.602;2022-11-20T14:30:14;51.58;;;23.88;;
30048;SDS011;16879;50.852;15.602;2022-11-20T14:33:03;36.53;;;17.92;;
30048;SDS011;16879;50.852;15.602;2022-11-20T14:35:33;25.98;;;13.30;;
30048;SDS011;16879;50.852;15.602;2022-11-20T14:38:08;25.50;;;15.15;;
30048;SDS011;16879;50.852;15.602;2022-11-20T14:40:39;28.98;;;16.58;;
30048;SDS011;16879;50.852;15.602;2022-11-20T14:43:23;21.20;;;11.60;;
30048;SDS011;16879;50.852;15.602;2022-11-20T14:45:58;18.88;;;10.02;;
30048;SDS011;16879;50.852;15.602;2022-11-20T14:48:32;16.00;;;9.57;;
30048;SDS011;16879;50.852;15.602;2022-11-20T14:53:31;18.83;;;10.35;;
30048;SDS011;16879;50.852;15.602;2022-11-20T14:55:59;18.45;;;9.23;;
30048;SDS011;16879;50.852;15.602;2022-11-20T14:58:28;20.75;;;12.25;;
30048;SDS011;16879;50.852;15.602;2022-11-20T15:00:58;63.05;;;28.88;;
30048;SDS011;16879;50.852;15.602;2022-11-20T15:03:39;29.40;;;13.90;;
30048;SDS011;16879;50.852;15.602;2022-11-20T15:06:06;40.90;;;20.23;;
30048;SDS011;16879;50.852;15.602;2022-11-20T15:14:45;25.85;;;13.77;;
30048;SDS011;16879;50.852;15.602;2022-11-20T15:21:11;30.67;;;14.88;;
30048;SDS011;16879;50.852;15.602;2022-11-20T15:23:43;17.52;;;10.02;;
30048;SDS011;16879;50.852;15.602;2022-11-20T15:26:11;17.92;;;9.63;;
30048;SDS011;16879;50.852;15.602;2022-11-20T15:31:15;13.23;;;7.95;;
30048;SDS011;16879;50.852;15.602;2022-11-20T15:33:42;49.05;;;19.83;;
30048;SDS011;16879;50.852;15.602;2022-11-20T15:36:09;32.00;;;14.57;;
30048;SDS011;16879;50.852;15.602;2022-11-20T15:38:36;29.00;;;13.30;;
30048;SDS011;16879;50.852;15.602;2022-11-20T15:41:03;31.98;;;16.50;;
30048;SDS011;16879;50.852;15.602;2022-11-20T15:43:43;33.53;;;16.20;;
30048;SDS011;16879;50.852;15.602;2022-11-20T15:46:13;19.73;;;10.10;;
30048;SDS011;16879;50.852;15.602;2022-11-20T15:48:42;69.68;;;31.50;;
30048;SDS011;16879;50.852;15.602;2022-11-20T15:51:18;44.45;;;25.42;;
30048;SDS011;16879;50.852;15.602;2022-11-20T15:53:51;57.67;;;29.52;;
30048;SDS011;16879;50.852;15.602;2022-11-20T15:56:18;59.50;;;33.08;;
30048;SDS011;16879;50.852;15.602;2022-11-20T15:58:45;105.10;;;43.42;;
30048;SDS011;16879;50.852;15.602;2022-11-20T16:01:16;80.90;;;39.97;;
30048;SDS011;16879;50.852;15.602;2022-11-20T16:03:43;53.33;;;27.20;;
30048;SDS011;16879;50.852;15.602;2022-11-20T16:06:10;45.38;;;25.63;;
30048;SDS011;16879;50.852;15.602;2022-11-20T16:08:41;83.63;;;36.70;;
30048;SDS011;16879;50.852;15.602;2022-11-20T16:11:10;97.80;;;36.67;;
30048;SDS011;16879;50.852;15.602;2022-11-20T16:13:37;90.95;;;42.42;;
30048;SDS011;16879;50.852;15.602;2022-11-20T16:16:32;73.22;;;40.78;;
30048;SDS011;16879;50.852;15.602;2022-11-20T16:19:01;71.38;;;40.58;;
30048;SDS011;16879;50.852;15.602;2022-11-20T16:21:31;96.90;;;55.30;;
30048;SDS011;16879;50.852;15.602;2022-11-20T16:23:58;80.05;;;45.42;;
30048;SDS011;16879;50.852;15.602;2022-11-20T16:26:26;50.50;;;24.75;;
30048;SDS011;16879;50.852;15.602;2022-11-20T16:28:53;50.15;;;27.13;;
30048;SDS011;16879;50.852;15.602;2022-11-20T16:31:22;56.40;;;27.15;;
30048;SDS011;16879;50.852;15.602;2022-11-20T16:33:49;46.17;;;24.90;;
30048;SDS011;16879;50.852;15.602;2022-11-20T16:36:18;55.63;;;25.65;;